Eheart, Virginia
Current Conditions -  °F | °C
As of 9:35 PM on Sunday 23 Nov 2014 (Local Time) from KGVE Reporting Station
Haze Haze  
Wind Chill: 49°   Ceiling: 600
Heat Index: 49°   Visibility: 4mi
Dew Point: 48°   Wind: 3mph
Humidity: 97%   Direction: 50°NE
Pressure: 29.87"   Gusts: NA
Location:  38.2068°N, 78.3055°W
Report Text: KGVE 240235Z AUTO 05003KT 4SM BR OVC006 10/09 A2987 RMK AO1 T00950091
Loading
Personal Weather Stations






























Interactive Weather Map New forecast layout! Learn more

10-Day Weather Forecast

Advertisements
Track Severe Weather on mobile